sensor_id;sensor_type;location;lat;lon;timestamp;P1;durP1;ratioP1;P2;durP2;ratioP2
31531;SDS011;23787;52.180;5.288;2022-10-04T00:09:48;244.90;;;229.90;;
31531;SDS011;23787;52.180;5.288;2022-10-04T00:14:46;244.90;;;229.90;;
31531;SDS011;23787;52.180;5.288;2022-10-04T00:19:48;253.60;;;237.90;;
31531;SDS011;23787;52.180;5.288;2022-10-04T00:24:59;253.60;;;237.90;;
31531;SDS011;23787;52.180;5.288;2022-10-04T00:29:49;253.60;;;237.90;;
31531;SDS011;23787;52.180;5.288;2022-10-04T00:39:46;255.50;;;239.60;;
31531;SDS011;23787;52.180;5.288;2022-10-04T00:49:50;243.70;;;228.50;;
31531;SDS011;23787;52.180;5.288;2022-10-04T01:09:49;262.80;;;245.80;;
31531;SDS011;23787;52.180;5.288;2022-10-04T01:14:52;262.80;;;245.80;;
31531;SDS011;23787;52.180;5.288;2022-10-04T01:19:50;252.60;;;236.90;;
31531;SDS011;23787;52.180;5.288;2022-10-04T01:24:45;252.60;;;236.90;;
31531;SDS011;23787;52.180;5.288;2022-10-04T01:34:45;238.00;;;222.50;;
31531;SDS011;23787;52.180;5.288;2022-10-04T01:39:45;238.00;;;222.50;;
31531;SDS011;23787;52.180;5.288;2022-10-04T01:44:50;238.00;;;222.50;;
31531;SDS011;23787;52.180;5.288;2022-10-04T01:54:49;245.60;;;230.90;;
31531;SDS011;23787;52.180;5.288;2022-10-04T01:59:49;245.60;;;230.90;;
31531;SDS011;23787;52.180;5.288;2022-10-04T02:09:49;225.60;;;212.00;;
31531;SDS011;23787;52.180;5.288;2022-10-04T02:19:46;226.70;;;212.50;;
31531;SDS011;23787;52.180;5.288;2022-10-04T02:24:47;226.70;;;212.50;;
31531;SDS011;23787;52.180;5.288;2022-10-04T02:29:45;226.70;;;212.50;;
31531;SDS011;23787;52.180;5.288;2022-10-04T02:34:46;236.70;;;222.20;;
31531;SDS011;23787;52.180;5.288;2022-10-04T02:39:48;236.70;;;222.20;;
31531;SDS011;23787;52.180;5.288;2022-10-04T02:44:49;236.70;;;222.20;;
31531;SDS011;23787;52.180;5.288;2022-10-04T02:49:48;199.10;;;187.30;;
31531;SDS011;23787;52.180;5.288;2022-10-04T02:54:48;199.10;;;187.30;;
31531;SDS011;23787;52.180;5.288;2022-10-04T02:59:46;199.10;;;187.30;;
31531;SDS011;23787;52.180;5.288;2022-10-04T03:09:46;174.00;;;163.30;;
31531;SDS011;23787;52.180;5.288;2022-10-04T03:14:45;174.00;;;163.30;;
31531;SDS011;23787;52.180;5.288;2022-10-04T03:29:46;165.40;;;156.20;;
31531;SDS011;23787;52.180;5.288;2022-10-04T03:39:47;180.90;;;170.00;;
31531;SDS011;23787;52.180;5.288;2022-10-04T03:44:47;180.90;;;170.00;;
31531;SDS011;23787;52.180;5.288;2022-10-04T03:49:46;184.20;;;172.80;;
31531;SDS011;23787;52.180;5.288;2022-10-04T03:59:46;184.20;;;172.80;;
31531;SDS011;23787;52.180;5.288;2022-10-04T04:04:51;159.60;;;150.70;;
31531;SDS011;23787;52.180;5.288;2022-10-04T04:09:49;159.60;;;150.70;;
31531;SDS011;23787;52.180;5.288;2022-10-04T04:14:48;159.60;;;150.70;;
31531;SDS011;23787;52.180;5.288;2022-10-04T04:19:46;145.30;;;137.30;;
31531;SDS011;23787;52.180;5.288;2022-10-04T04:24:46;145.30;;;137.30;;
31531;SDS011;23787;52.180;5.288;2022-10-04T04:39:48;136.30;;;128.40;;
31531;SDS011;23787;52.180;5.288;2022-10-04T04:44:48;136.30;;;128.40;;
31531;SDS011;23787;52.180;5.288;2022-10-04T04:49:45;110.80;;;104.60;;
31531;SDS011;23787;52.180;5.288;2022-10-04T04:54:46;110.80;;;104.60;;
31531;SDS011;23787;52.180;5.288;2022-10-04T05:04:45;130.80;;;123.60;;
31531;SDS011;23787;52.180;5.288;2022-10-04T05:09:45;130.80;;;123.60;;
31531;SDS011;23787;52.180;5.288;2022-10-04T05:14:49;130.80;;;123.60;;
31531;SDS011;23787;52.180;5.288;2022-10-04T05:19:46;118.00;;;111.40;;
31531;SDS011;23787;52.180;5.288;2022-10-04T05:44:49;105.00;;;99.20;;
31531;SDS011;23787;52.180;5.288;2022-10-04T05:49:46;92.10;;;87.30;;
31531;SDS011;23787;52.180;5.288;2022-10-04T05:54:45;92.10;;;87.30;;
31531;SDS011;23787;52.180;5.288;2022-10-04T06:04:54;114.70;;;108.00;;
31531;SDS011;23787;52.180;5.288;2022-10-04T06:09:55;114.70;;;108.00;;
31531;SDS011;23787;52.180;5.288;2022-10-04T06:14:54;114.70;;;108.00;;
31531;SDS011;23787;52.180;5.288;2022-10-04T06:24:49;113.90;;;107.70;;
31531;SDS011;23787;52.180;5.288;2022-10-04T06:29:48;113.90;;;107.70;;
31531;SDS011;23787;52.180;5.288;2022-10-04T06:39:59;95.90;;;90.80;;
31531;SDS011;23787;52.180;5.288;2022-10-04T06:44:55;95.90;;;90.80;;
31531;SDS011;23787;52.180;5.288;2022-10-04T06:49:47;125.90;;;118.70;;
31531;SDS011;23787;52.180;5.288;2022-10-04T06:54:56;125.90;;;118.70;;
31531;SDS011;23787;52.180;5.288;2022-10-04T06:59:57;125.90;;;118.70;;
31531;SDS011;23787;52.180;5.288;2022-10-04T07:04:50;105.00;;;99.40;;
31531;SDS011;23787;52.180;5.288;2022-10-04T07:09:46;105.00;;;99.40;;
31531;SDS011;23787;52.180;5.288;2022-10-04T07:14:51;105.00;;;99.40;;
31531;SDS011;23787;52.180;5.288;2022-10-04T07:19:47;118.50;;;111.30;;
31531;SDS011;23787;52.180;5.288;2022-10-04T07:24:54;118.50;;;111.30;;
31531;SDS011;23787;52.180;5.288;2022-10-04T07:29:51;118.50;;;111.30;;
31531;SDS011;23787;52.180;5.288;2022-10-04T07:34:50;125.50;;;118.50;;
31531;SDS011;23787;52.180;5.288;2022-10-04T07:39:49;125.50;;;118.50;;
31531;SDS011;23787;52.180;5.288;2022-10-04T07:44:55;125.50;;;118.50;;
31531;SDS011;23787;52.180;5.288;2022-10-04T07:49:46;162.10;;;153.40;;
31531;SDS011;23787;52.180;5.288;2022-10-04T07:54:49;162.10;;;153.40;;
31531;SDS011;23787;52.180;5.288;2022-10-04T07:59:53;162.10;;;153.40;;
31531;SDS011;23787;52.180;5.288;2022-10-04T08:09:55;169.10;;;159.40;;
31531;SDS011;23787;52.180;5.288;2022-10-04T08:14:53;169.10;;;159.40;;
31531;SDS011;23787;52.180;5.288;2022-10-04T08:19:55;220.40;;;207.60;;
31531;SDS011;23787;52.180;5.288;2022-10-04T08:24:51;220.40;;;207.60;;
31531;SDS011;23787;52.180;5.288;2022-10-04T08:29:54;220.40;;;207.60;;
31531;SDS011;23787;52.180;5.288;2022-10-04T08:34:54;324.50;;;303.30;;
31531;SDS011;23787;52.180;5.288;2022-10-04T08:39:59;324.50;;;303.30;;
31531;SDS011;23787;52.180;5.288;2022-10-04T08:55:01;379.20;;;352.60;;
31531;SDS011;23787;52.180;5.288;2022-10-04T09:00:02;379.20;;;352.60;;
31531;SDS011;23787;52.180;5.288;2022-10-04T09:05:01;378.20;;;350.20;;
31531;SDS011;23787;52.180;5.288;2022-10-04T09:09:54;378.20;;;350.20;;
31531;SDS011;23787;52.180;5.288;2022-10-04T09:15:00;378.20;;;350.20;;
31531;SDS011;23787;52.180;5.288;2022-10-04T09:19:53;257.00;;;236.00;;
31531;SDS011;23787;52.180;5.288;2022-10-04T09:24:57;257.00;;;236.00;;
31531;SDS011;23787;52.180;5.288;2022-10-04T09:29:59;257.00;;;236.00;;
31531;SDS011;23787;52.180;5.288;2022-10-04T09:35:01;174.60;;;157.80;;
31531;SDS011;23787;52.180;5.288;2022-10-04T09:39:56;174.60;;;157.80;;
31531;SDS011;23787;52.180;5.288;2022-10-04T09:44:52;174.60;;;157.80;;
31531;SDS011;23787;52.180;5.288;2022-10-04T09:50:05;118.30;;;106.00;;
31531;SDS011;23787;52.180;5.288;2022-10-04T09:54:55;118.30;;;106.00;;
31531;SDS011;23787;52.180;5.288;2022-10-04T09:59:57;118.30;;;106.00;;
31531;SDS011;23787;52.180;5.288;2022-10-04T10:04:51;84.10;;;76.80;;
31531;SDS011;23787;52.180;5.288;2022-10-04T10:09:55;84.10;;;76.80;;
31531;SDS011;23787;52.180;5.288;2022-10-04T10:20:00;61.00;;;54.30;;
31531;SDS011;23787;52.180;5.288;2022-10-04T10:25:00;61.00;;;54.30;;
31531;SDS011;23787;52.180;5.288;2022-10-04T10:30:00;61.00;;;54.30;;
31531;SDS011;23787;52.180;5.288;2022-10-04T10:34:59;63.00;;;56.90;;
31531;SDS011;23787;52.180;5.288;2022-10-04T10:40:00;63.00;;;56.90;;
31531;SDS011;23787;52.180;5.288;2022-10-04T10:45:00;63.00;;;56.90;;
31531;SDS011;23787;52.180;5.288;2022-10-04T10:49:56;50.90;;;46.10;;
31531;SDS011;23787;52.180;5.288;2022-10-04T10:54:56;50.90;;;46.10;;
31531;SDS011;23787;52.180;5.288;2022-10-04T11:04:50;39.30;;;35.80;;
31531;SDS011;23787;52.180;5.288;2022-10-04T11:15:03;39.30;;;35.80;;
31531;SDS011;23787;52.180;5.288;2022-10-04T11:20:04;32.30;;;28.20;;
31531;SDS011;23787;52.180;5.288;2022-10-04T11:26:08;unknown;;;unknown;;
31531;SDS011;23787;52.180;5.288;2022-10-04T11:31:05;unknown;;;unknown;;
31531;SDS011;23787;52.180;5.288;2022-10-04T11:35:57;28.30;;;25.80;;
31531;SDS011;23787;52.180;5.288;2022-10-04T11:41:03;28.30;;;25.80;;
31531;SDS011;23787;52.180;5.288;2022-10-04T11:46:02;28.30;;;25.80;;
31531;SDS011;23787;52.180;5.288;2022-10-04T11:50:59;30.90;;;28.20;;
31531;SDS011;23787;52.180;5.288;2022-10-04T11:56:02;30.90;;;28.20;;
31531;SDS011;23787;52.180;5.288;2022-10-04T12:01:10;30.90;;;28.20;;
31531;SDS011;23787;52.180;5.288;2022-10-04T12:05:52;34.90;;;31.10;;
31531;SDS011;23787;52.180;5.288;2022-10-04T12:11:15;34.90;;;31.10;;
31531;SDS011;23787;52.180;5.288;2022-10-04T12:16:03;34.90;;;31.10;;
31531;SDS011;23787;52.180;5.288;2022-10-04T12:20:55;27.70;;;25.10;;
31531;SDS011;23787;52.180;5.288;2022-10-04T12:31:04;27.70;;;25.10;;
31531;SDS011;23787;52.180;5.288;2022-10-04T12:35:56;40.00;;;36.70;;
31531;SDS011;23787;52.180;5.288;2022-10-04T12:40:54;40.00;;;36.70;;
31531;SDS011;23787;52.180;5.288;2022-10-04T12:45:58;40.00;;;36.70;;
31531;SDS011;23787;52.180;5.288;2022-10-04T12:50:55;39.50;;;35.30;;
31531;SDS011;23787;52.180;5.288;2022-10-04T12:56:02;39.50;;;35.30;;
31531;SDS011;23787;52.180;5.288;2022-10-04T13:00:52;39.50;;;35.30;;
31531;SDS011;23787;52.180;5.288;2022-10-04T13:05:59;38.20;;;34.70;;
31531;SDS011;23787;52.180;5.288;2022-10-04T13:11:03;38.20;;;34.70;;
31531;SDS011;23787;52.180;5.288;2022-10-04T13:15:52;38.20;;;34.70;;
31531;SDS011;23787;52.180;5.288;2022-10-04T13:20:55;27.20;;;24.70;;
31531;SDS011;23787;52.180;5.288;2022-10-04T13:26:02;27.20;;;24.70;;
31531;SDS011;23787;52.180;5.288;2022-10-04T13:30:53;27.20;;;24.70;;
31531;SDS011;23787;52.180;5.288;2022-10-04T13:35:53;36.10;;;32.50;;
31531;SDS011;23787;52.180;5.288;2022-10-04T13:41:01;36.10;;;32.50;;
31531;SDS011;23787;52.180;5.288;2022-10-04T13:45:54;36.10;;;32.50;;
31531;SDS011;23787;52.180;5.288;2022-10-04T13:51:00;32.80;;;29.50;;
31531;SDS011;23787;52.180;5.288;2022-10-04T13:55:58;32.80;;;29.50;;
31531;SDS011;23787;52.180;5.288;2022-10-04T14:01:04;32.80;;;29.50;;
31531;SDS011;23787;52.180;5.288;2022-10-04T14:11:03;29.40;;;26.40;;
31531;SDS011;23787;52.180;5.288;2022-10-04T14:16:03;29.40;;;26.40;;
31531;SDS011;23787;52.180;5.288;2022-10-04T14:21:03;33.80;;;30.50;;
31531;SDS011;23787;52.180;5.288;2022-10-04T14:26:02;33.80;;;30.50;;
31531;SDS011;23787;52.180;5.288;2022-10-04T14:30:57;33.80;;;30.50;;
31531;SDS011;23787;52.180;5.288;2022-10-04T14:35:54;43.60;;;39.50;;
31531;SDS011;23787;52.180;5.288;2022-10-04T14:41:05;43.60;;;39.50;;
31531;SDS011;23787;52.180;5.288;2022-10-04T14:46:00;43.60;;;39.50;;
31531;SDS011;23787;52.180;5.288;2022-10-04T14:50:57;45.00;;;41.10;;
31531;SDS011;23787;52.180;5.288;2022-10-04T14:56:02;45.00;;;41.10;;
31531;SDS011;23787;52.180;5.288;2022-10-04T15:01:04;45.00;;;41.10;;
31531;SDS011;23787;52.180;5.288;2022-10-04T15:15:53;60.00;;;54.40;;
31531;SDS011;23787;52.180;5.288;2022-10-04T15:20:52;55.10;;;50.20;;
31531;SDS011;23787;52.180;5.288;2022-10-04T15:25:52;55.10;;;50.20;;
31531;SDS011;23787;52.180;5.288;2022-10-04T15:30:54;55.10;;;50.20;;
31531;SDS011;23787;52.180;5.288;2022-10-04T15:36:07;71.80;;;65.40;;
31531;SDS011;23787;52.180;5.288;2022-10-04T15:50:57;79.30;;;70.90;;
31531;SDS011;23787;52.180;5.288;2022-10-04T15:56:04;79.30;;;70.90;;
31531;SDS011;23787;52.180;5.288;2022-10-04T16:00:55;79.30;;;70.90;;
31531;SDS011;23787;52.180;5.288;2022-10-04T16:05:57;80.70;;;73.70;;
31531;SDS011;23787;52.180;5.288;2022-10-04T16:11:02;80.70;;;73.70;;
31531;SDS011;23787;52.180;5.288;2022-10-04T16:20:55;105.20;;;95.70;;
31531;SDS011;23787;52.180;5.288;2022-10-04T16:25:49;105.20;;;95.70;;
31531;SDS011;23787;52.180;5.288;2022-10-04T16:41:04;113.10;;;102.90;;
31531;SDS011;23787;52.180;5.288;2022-10-04T16:46:03;118.80;;;108.70;;
31531;SDS011;23787;52.180;5.288;2022-10-04T17:05:38;121.60;;;110.80;;
31531;SDS011;23787;52.180;5.288;2022-10-04T17:20:26;146.50;;;133.50;;
31531;SDS011;23787;52.180;5.288;2022-10-04T17:25:30;146.50;;;133.50;;
31531;SDS011;23787;52.180;5.288;2022-10-04T17:40:32;147.00;;;134.50;;
31531;SDS011;23787;52.180;5.288;2022-10-04T17:45:34;147.00;;;134.50;;
31531;SDS011;23787;52.180;5.288;2022-10-04T17:50:27;166.70;;;152.10;;
31531;SDS011;23787;52.180;5.288;2022-10-04T18:00:25;166.70;;;152.10;;
31531;SDS011;23787;52.180;5.288;2022-10-04T18:10:27;171.80;;;157.40;;
31531;SDS011;23787;52.180;5.288;2022-10-04T18:20:26;209.50;;;192.40;;
31531;SDS011;23787;52.180;5.288;2022-10-04T18:25:24;209.50;;;192.40;;
31531;SDS011;23787;52.180;5.288;2022-10-04T18:30:24;209.50;;;192.40;;
31531;SDS011;23787;52.180;5.288;2022-10-04T18:35:26;220.90;;;203.40;;
31531;SDS011;23787;52.180;5.288;2022-10-04T18:40:26;220.90;;;203.40;;
31531;SDS011;23787;52.180;5.288;2022-10-04T18:55:29;237.20;;;217.50;;
31531;SDS011;23787;52.180;5.288;2022-10-04T19:00:24;237.20;;;217.50;;
31531;SDS011;23787;52.180;5.288;2022-10-04T19:16:09;253.00;;;231.90;;
31531;SDS011;23787;52.180;5.288;2022-10-04T19:20:53;253.00;;;231.90;;
31531;SDS011;23787;52.180;5.288;2022-10-04T19:30:57;237.90;;;218.60;;
31531;SDS011;23787;52.180;5.288;2022-10-04T19:35:59;237.90;;;218.60;;
31531;SDS011;23787;52.180;5.288;2022-10-04T19:40:52;237.90;;;218.60;;
31531;SDS011;23787;52.180;5.288;2022-10-04T19:46:00;268.20;;;248.20;;
31531;SDS011;23787;52.180;5.288;2022-10-04T19:49:36;268.20;;;248.20;;
31531;SDS011;23787;52.180;5.288;2022-10-04T19:53:47;268.20;;;248.20;;
31531;SDS011;23787;52.180;5.288;2022-10-04T19:55:52;268.20;;;248.20;;
31531;SDS011;23787;52.180;5.288;2022-10-04T20:00:48;254.70;;;235.30;;
31531;SDS011;23787;52.180;5.288;2022-10-04T20:24:17;286.50;;;263.70;;
31531;SDS011;23787;52.180;5.288;2022-10-04T20:49:15;268.60;;;247.00;;
31531;SDS011;23787;52.180;5.288;2022-10-04T20:59:15;268.60;;;247.00;;
31531;SDS011;23787;52.180;5.288;2022-10-04T21:14:21;275.70;;;254.50;;
31531;SDS011;23787;52.180;5.288;2022-10-04T21:24:31;311.70;;;286.80;;
31531;SDS011;23787;52.180;5.288;2022-10-04T21:29:13;311.70;;;286.80;;
31531;SDS011;23787;52.180;5.288;2022-10-04T21:34:13;286.80;;;265.60;;
31531;SDS011;23787;52.180;5.288;2022-10-04T21:44:13;286.80;;;265.60;;
31531;SDS011;23787;52.180;5.288;2022-10-04T21:49:13;293.40;;;271.20;;
31531;SDS011;23787;52.180;5.288;2022-10-04T21:54:13;293.40;;;271.20;;
31531;SDS011;23787;52.180;5.288;2022-10-04T21:59:13;293.40;;;271.20;;
31531;SDS011;23787;52.180;5.288;2022-10-04T22:19:13;294.40;;;272.00;;
31531;SDS011;23787;52.180;5.288;2022-10-04T22:24:16;294.40;;;272.00;;
31531;SDS011;23787;52.180;5.288;2022-10-04T22:39:16;305.30;;;281.30;;
31531;SDS011;23787;52.180;5.288;2022-10-04T22:44:17;305.30;;;281.30;;
31531;SDS011;23787;52.180;5.288;2022-10-04T22:54:15;331.20;;;307.30;;
31531;SDS011;23787;52.180;5.288;2022-10-04T22:59:15;331.20;;;307.30;;
31531;SDS011;23787;52.180;5.288;2022-10-04T23:04:17;291.40;;;270.40;;
31531;SDS011;23787;52.180;5.288;2022-10-04T23:14:13;291.40;;;270.40;;
31531;SDS011;23787;52.180;5.288;2022-10-04T23:19:15;325.90;;;301.70;;
31531;SDS011;23787;52.180;5.288;2022-10-04T23:24:15;325.90;;;301.70;;
31531;SDS011;23787;52.180;5.288;2022-10-04T23:29:16;325.90;;;301.70;;
31531;SDS011;23787;52.180;5.288;2022-10-04T23:34:15;333.80;;;309.30;;
31531;SDS011;23787;52.180;5.288;2022-10-04T23:39:21;333.80;;;309.30;;
31531;SDS011;23787;52.180;5.288;2022-10-04T23:44:14;333.80;;;309.30;;
31531;SDS011;23787;52.180;5.288;2022-10-04T23:49:14;307.70;;;284.50;;
